< Typhoon 202121 2021 Season Typhoon 202201 >
Typhoon 202122 (RAI)
General InformationTrack Information on Google MapsDetailed Wind InformationForecast History on Google MapsAccess Analytics MapList of All Images || NewsDisaster Info.WeblogTrackbackTyphoon FrontTwiphoonTyphoon Now!Typhoon ImaginationJMA Disaster Info. XMLResourceGoogle EarthGE AnimationAtom FeedGeoJSON
Detalied Best Track (Time Zone = UTC)
Year Month Day Hour Lat. Long. Pressure (hPa) Wind (kt) Class Image Chart
2021 12 11 18 5.8 144.8 1002 0 2 Image Chart
2021 12 12 00 5.8 144.4 1004 0 2 Image Chart
2021 12 12 06 5.8 144.0 1002 0 2 Image Chart
2021 12 12 12 5.8 143.5 1004 0 2 Image Chart
2021 12 12 18 5.8 143.0 1002 0 2 Image Chart
2021 12 13 00 5.8 142.0 1000 0 2 Image Chart
2021 12 13 06 6.0 141.0 998 35 3 Image Chart
2021 12 13 12 6.4 139.7 996 40 3 Image Chart
2021 12 13 18 6.8 138.4 992 45 3 Image Chart
2021 12 14 00 7.2 137.1 990 50 4 Image Chart
2021 12 14 06 7.8 135.8 985 55 4 Image Chart
2021 12 14 12 8.4 134.5 980 60 4 Image Chart
2021 12 14 18 8.6 133.4 970 70 5 Image Chart
2021 12 15 00 8.7 132.3 965 75 5 Image Chart
2021 12 15 06 8.9 131.2 955 80 5 Image Chart
2021 12 15 12 9.1 130.1 955 80 5 Image Chart
2021 12 15 18 9.4 128.9 950 85 5 Image Chart
2021 12 16 00 9.7 127.6 925 100 5 Image Chart
2021 12 16 06 9.9 126.0 915 105 5 Image Chart
2021 12 16 12 10.0 124.3 935 95 5 Image Chart
2021 12 16 18 10.0 122.6 950 85 5 Image Chart
2021 12 17 00 10.0 121.2 955 80 5 Image Chart
2021 12 17 06 10.3 119.9 955 80 5 Image Chart
2021 12 17 12 10.4 118.6 955 80 5 Image Chart
2021 12 17 18 10.6 117.4 955 80 5 Image Chart
2021 12 18 00 10.8 116.0 950 85 5 Image Chart
2021 12 18 06 11.2 114.6 935 95 5 Image Chart
2021 12 18 12 11.8 113.4 925 100 5 Image Chart
2021 12 18 18 12.5 112.2 915 105 5 Image Chart
2021 12 19 00 13.1 111.4 915 105 5 Image Chart
2021 12 19 06 13.9 110.6 925 100 5 Image Chart
2021 12 19 12 14.9 110.6 940 90 5 Image Chart
2021 12 19 18 16.1 110.7 955 80 5 Image Chart
2021 12 20 00 17.2 110.9 970 70 5 Image Chart
2021 12 20 06 18.1 111.4 985 55 4 Image Chart
2021 12 20 12 19.0 111.9 1000 35 3 Image Chart
2021 12 20 18 19.9 112.8 1006 0 2 Image Chart
2021 12 21 00 20.8 114.0 1008 0 2 Image Chart
2021 12 21 06 21.3 115.3 1008 0 2 Image Chart
Japan Meteorological Agency Best Track Data | Correction Date : 2022-02-04
< Typhoon 202121 2021 Season Typhoon 202201 >

Help